createdAt,value
2022-07-29T00:01:57.900Z,40.57
2022-07-29T00:04:29.535Z,40.73
2022-07-29T00:06:56.529Z,40.70
2022-07-29T00:09:25.554Z,40.44
2022-07-29T00:11:52.756Z,41.01
2022-07-29T00:14:19.472Z,40.74
2022-07-29T00:16:46.193Z,40.69
2022-07-29T00:19:12.776Z,40.76
2022-07-29T00:21:39.387Z,40.63
2022-07-29T00:24:06.054Z,41.17
2022-07-29T00:26:33.542Z,41.08
2022-07-29T00:29:32.527Z,40.98
2022-07-29T00:31:49.966Z,40.89
2022-07-29T00:34:37.742Z,40.64
2022-07-29T00:37:09.340Z,40.90
2022-07-29T00:39:35.996Z,40.92
2022-07-29T00:42:08.647Z,40.93
2022-07-29T00:44:39.129Z,40.72
2022-07-29T00:47:10.115Z,41.02
2022-07-29T00:49:37.546Z,41.11
2022-07-29T00:52:07.284Z,41.29
2022-07-29T00:54:34.461Z,41.38
2022-07-29T00:57:03.924Z,40.76
2022-07-29T00:59:34.792Z,41.12
2022-07-29T01:02:02.179Z,41.30
2022-07-29T01:04:30.636Z,40.89
2022-07-29T01:06:57.476Z,40.93
2022-07-29T01:09:37.292Z,41.48
2022-07-29T01:12:22.740Z,41.08
2022-07-29T01:14:49.355Z,41.42
2022-07-29T01:17:18.715Z,41.40
2022-07-29T01:20:06.936Z,41.25
2022-07-29T01:22:35.751Z,41.58
2022-07-29T01:25:11.408Z,41.43
2022-07-29T01:27:56.760Z,41.13
2022-07-29T01:30:23.726Z,41.24
2022-07-29T01:32:54.507Z,41.36
2022-07-29T01:35:24.846Z,41.29
2022-07-29T01:37:55.909Z,41.42
2022-07-29T01:40:28.077Z,41.58
2022-07-29T01:42:58.506Z,41.76
2022-07-29T01:45:38.506Z,42.04
2022-07-29T01:48:07.367Z,41.83
2022-07-29T01:50:35.896Z,42.17
2022-07-29T01:53:03.773Z,42.53
2022-07-29T01:55:33.341Z,42.28
2022-07-29T01:57:59.980Z,42.11
2022-07-29T02:00:26.754Z,42.40
2022-07-29T02:02:53.731Z,42.50
2022-07-29T02:05:20.434Z,42.35
2022-07-29T02:07:47.615Z,42.40
2022-07-29T02:10:14.618Z,42.54
2022-07-29T02:12:49.872Z,42.67
2022-07-29T02:15:19.877Z,42.29
2022-07-29T02:17:56.494Z,42.53
2022-07-29T02:20:25.990Z,42.49
2022-07-29T02:22:52.628Z,43.11
2022-07-29T02:25:19.260Z,42.79
2022-07-29T02:27:48.932Z,43.16
2022-07-29T02:30:15.480Z,42.95
2022-07-29T02:32:42.556Z,42.89
2022-07-29T02:35:09.765Z,43.08
2022-07-29T02:37:36.836Z,42.97
2022-07-29T02:40:06.010Z,42.93
2022-07-29T02:42:32.568Z,43.11
2022-07-29T02:44:59.828Z,42.85
2022-07-29T02:47:42.048Z,43.06
2022-07-29T02:50:09.407Z,43.14
2022-07-29T02:52:36.464Z,43.18
2022-07-29T02:55:05.932Z,43.39
2022-07-29T02:57:54.604Z,43.41
2022-07-29T03:00:25.213Z,43.57
2022-07-29T03:02:52.336Z,43.50
2022-07-29T03:05:19.926Z,43.65
2022-07-29T03:07:47.255Z,43.77
2022-07-29T03:10:14.916Z,43.83
2022-07-29T03:12:41.475Z,43.70
2022-07-29T03:15:10.594Z,43.88
2022-07-29T03:17:37.447Z,43.86
2022-07-29T03:20:04.122Z,44.18
2022-07-29T03:22:30.709Z,44.19
2022-07-29T03:24:57.546Z,44.72
2022-07-29T03:27:26.505Z,44.50
2022-07-29T03:29:55.819Z,44.67
2022-07-29T03:32:24.056Z,44.67
2022-07-29T03:34:52.616Z,45.17
2022-07-29T03:37:21.520Z,46.17
2022-07-29T03:39:48.173Z,45.50
2022-07-29T03:42:15.101Z,45.49
2022-07-29T03:44:42.248Z,45.83
2022-07-29T03:47:08.785Z,46.12
2022-07-29T03:49:38.127Z,46.24
2022-07-29T03:52:07.290Z,46.53
2022-07-29T03:54:33.884Z,46.68
2022-07-29T03:57:03.299Z,46.76
2022-07-29T03:59:29.950Z,47.98
2022-07-29T04:01:56.701Z,47.67
2022-07-29T04:04:23.619Z,47.60
2022-07-29T04:06:50.564Z,47.51
2022-07-29T04:09:17.138Z,47.87
2022-07-29T04:12:02.035Z,48.04
2022-07-29T04:14:30.557Z,48.00
2022-07-29T04:16:59.639Z,48.01
2022-07-29T04:19:26.318Z,48.00
2022-07-29T04:21:55.333Z,48.63
2022-07-29T04:24:22.100Z,49.18
2022-07-29T04:26:49.209Z,48.79
2022-07-29T04:29:18.166Z,48.86
2022-07-29T04:31:48.020Z,48.93
2022-07-29T04:34:14.903Z,48.70
2022-07-29T04:36:41.872Z,48.63
2022-07-29T04:39:09.040Z,48.46
2022-07-29T04:41:35.632Z,48.68
2022-07-29T04:44:07.034Z,48.87
2022-07-29T04:46:34.302Z,49.21
2022-07-29T04:49:00.956Z,49.09
2022-07-29T04:51:27.610Z,48.94
2022-07-29T04:53:56.808Z,48.78
2022-07-29T04:56:23.729Z,49.44
2022-07-29T04:58:53.271Z,49.06
2022-07-29T05:01:26.242Z,48.68
2022-07-29T05:03:57.010Z,48.71
2022-07-29T05:06:26.541Z,48.36
2022-07-29T05:08:55.552Z,48.33
2022-07-29T05:11:24.975Z,48.43
2022-07-29T05:13:53.971Z,48.24
2022-07-29T05:16:20.567Z,48.32
2022-07-29T05:18:47.240Z,48.20
2022-07-29T05:21:14.084Z,48.20
2022-07-29T05:23:41.120Z,47.66
2022-07-29T05:26:07.745Z,48.51
2022-07-29T05:28:35.802Z,47.79
2022-07-29T05:31:04.846Z,47.50
2022-07-29T05:33:35.399Z,47.43
2022-07-29T05:36:12.077Z,47.47
2022-07-29T05:38:41.359Z,47.59
2022-07-29T05:41:08.815Z,47.21
2022-07-29T05:43:35.315Z,47.27
2022-07-29T05:46:02.392Z,47.54
2022-07-29T05:48:29.065Z,47.18
2022-07-29T05:50:55.754Z,46.97
2022-07-29T05:53:25.071Z,46.91
2022-07-29T05:55:52.671Z,46.82
2022-07-29T05:58:19.282Z,46.68
2022-07-29T06:00:45.928Z,46.64
2022-07-29T06:03:15.660Z,46.48
2022-07-29T06:05:42.367Z,46.43
2022-07-29T06:08:11.512Z,46.25
2022-07-29T06:10:38.545Z,46.33
2022-07-29T06:13:08.177Z,46.56
2022-07-29T06:15:39.851Z,46.43
2022-07-29T06:18:10.099Z,45.88
2022-07-29T06:20:39.965Z,45.99
2022-07-29T06:23:10.871Z,46.01
2022-07-29T06:25:38.724Z,45.82
2022-07-29T06:28:05.496Z,45.26
2022-07-29T06:30:34.485Z,45.28
2022-07-29T06:33:02.974Z,44.67
2022-07-29T06:35:38.537Z,44.90
2022-07-29T06:38:30.653Z,44.58
2022-07-29T06:41:01.809Z,44.54
2022-07-29T06:43:32.418Z,44.52
2022-07-29T06:46:05.525Z,44.09
2022-07-29T06:48:32.467Z,44.20
2022-07-29T06:50:59.157Z,43.85
2022-07-29T06:53:26.359Z,43.83
2022-07-29T06:55:53.290Z,43.25
2022-07-29T06:58:22.572Z,43.39
2022-07-29T07:00:55.492Z,43.23
2022-07-29T07:03:22.284Z,43.12
2022-07-29T07:05:49.038Z,43.01
2022-07-29T07:08:17.102Z,42.74
2022-07-29T07:10:46.131Z,42.37
2022-07-29T07:13:12.744Z,42.63
2022-07-29T07:15:40.265Z,42.30
2022-07-29T07:18:07.795Z,42.19
2022-07-29T07:20:35.095Z,41.68
2022-07-29T07:23:04.141Z,41.68
2022-07-29T07:25:30.948Z,40.85
2022-07-29T07:28:02.596Z,40.90
2022-07-29T07:30:29.237Z,40.19
2022-07-29T07:32:56.382Z,40.60
2022-07-29T07:35:23.026Z,41.23
2022-07-29T07:37:53.760Z,40.85
2022-07-29T07:40:24.200Z,40.22
2022-07-29T07:42:53.266Z,40.68
2022-07-29T07:45:20.031Z,40.25
2022-07-29T07:47:46.603Z,40.94
2022-07-29T07:50:21.233Z,40.47
2022-07-29T07:52:51.829Z,40.72
2022-07-29T07:55:18.607Z,40.21
2022-07-29T07:57:45.670Z,40.20
2022-07-29T08:00:13.365Z,40.07
2022-07-29T08:02:40.549Z,39.76
2022-07-29T08:05:08.432Z,39.63
2022-07-29T08:07:39.490Z,39.78
2022-07-29T08:10:08.762Z,39.35
2022-07-29T08:12:35.533Z,39.49
2022-07-29T08:15:02.306Z,39.88
2022-07-29T08:17:29.321Z,39.50
2022-07-29T08:19:56.105Z,39.26
2022-07-29T08:22:22.808Z,38.73
2022-07-29T08:24:57.205Z,39.09
2022-07-29T08:27:44.764Z,38.64
2022-07-29T08:30:14.716Z,38.24
2022-07-29T08:32:53.787Z,37.69
2022-07-29T08:35:22.160Z,36.91
2022-07-29T08:37:51.621Z,37.52
2022-07-29T08:40:18.326Z,37.40
2022-07-29T08:42:47.283Z,37.43
2022-07-29T08:45:13.866Z,36.76
2022-07-29T08:47:40.901Z,36.32
2022-07-29T08:50:09.014Z,36.19
2022-07-29T08:52:40.137Z,35.83
2022-07-29T08:55:07.624Z,36.50
2022-07-29T08:57:34.947Z,34.91
2022-07-29T09:00:08.092Z,35.08
2022-07-29T09:02:46.925Z,35.54
2022-07-29T09:05:14.942Z,36.22
2022-07-29T09:07:44.277Z,35.96
2022-07-29T09:10:13.532Z,35.89
2022-07-29T09:12:42.527Z,35.06
2022-07-29T09:15:09.524Z,35.13
2022-07-29T09:17:43.131Z,34.94
2022-07-29T09:20:10.833Z,34.74
2022-07-29T09:22:41.829Z,34.26
2022-07-29T09:25:09.668Z,33.96
2022-07-29T09:27:36.668Z,33.93
2022-07-29T09:30:11.529Z,34.21
2022-07-29T09:33:01.889Z,33.61
2022-07-29T09:35:29.010Z,33.56
2022-07-29T09:37:55.854Z,33.29
2022-07-29T09:40:26.647Z,33.00
2022-07-29T09:42:57.938Z,33.38
2022-07-29T09:45:27.747Z,33.16
2022-07-29T09:47:55.128Z,32.75
2022-07-29T09:50:25.274Z,32.63
2022-07-29T09:52:53.024Z,32.38
2022-07-29T09:55:22.105Z,31.96
2022-07-29T09:57:49.361Z,31.16
2022-07-29T10:00:17.123Z,31.45
2022-07-29T10:02:47.657Z,30.95
2022-07-29T10:05:19.893Z,30.88
2022-07-29T10:07:53.219Z,30.85
2022-07-29T10:10:22.041Z,30.61
2022-07-29T10:12:51.709Z,30.62
2022-07-29T10:15:18.587Z,28.46
2022-07-29T10:17:46.007Z,28.66
2022-07-29T10:20:16.586Z,29.11
2022-07-29T10:22:53.493Z,29.36
2022-07-29T10:25:21.225Z,28.55
2022-07-29T10:27:48.536Z,28.51
2022-07-29T10:30:15.803Z,27.35
2022-07-29T10:33:01.354Z,27.32
2022-07-29T10:35:40.110Z,26.82
2022-07-29T10:38:18.712Z,27.19
2022-07-29T10:41:06.645Z,27.96
2022-07-29T10:43:39.210Z,27.27
2022-07-29T10:46:09.100Z,27.96
2022-07-29T10:48:41.232Z,27.68
2022-07-29T10:51:10.428Z,27.04
2022-07-29T10:53:48.547Z,27.38
2022-07-29T10:56:33.470Z,26.95
2022-07-29T10:59:18.793Z,25.67
2022-07-29T11:01:50.271Z,26.12
2022-07-29T11:04:39.568Z,26.01
2022-07-29T11:07:06.171Z,26.81
2022-07-29T11:09:37.786Z,25.95
2022-07-29T11:12:25.944Z,25.72
2022-07-29T11:14:53.327Z,25.96
2022-07-29T11:17:20.428Z,26.26
2022-07-29T11:19:51.922Z,25.99
2022-07-29T11:22:37.163Z,25.59
2022-07-29T11:25:16.796Z,25.37
2022-07-29T11:27:44.533Z,24.56
2022-07-29T11:30:13.221Z,23.59
2022-07-29T11:32:48.731Z,22.92
2022-07-29T11:38:21.064Z,23.15
2022-07-29T11:41:07.919Z,22.92
2022-07-29T11:44:09.014Z,21.88
2022-07-29T11:46:51.321Z,22.08
2022-07-29T11:49:32.035Z,22.16
2022-07-29T11:52:02.547Z,22.09
2022-07-29T11:54:38.736Z,21.49
2022-07-29T11:57:21.297Z,21.07
2022-07-29T11:59:48.649Z,21.06
2022-07-29T12:02:36.507Z,19.84
2022-07-29T12:05:10.869Z,21.02
2022-07-29T12:07:01.567Z,23.23
2022-07-29T12:07:38.500Z,20.41
2022-07-29T12:10:11.481Z,18.60
2022-07-29T12:12:51.951Z,20.09
2022-07-29T12:15:21.507Z,19.46
2022-07-29T12:17:49.702Z,18.96
2022-07-29T12:20:23.847Z,18.00
2022-07-29T12:22:54.655Z,18.42
2022-07-29T12:25:37.233Z,18.12
2022-07-29T12:28:05.512Z,18.35
2022-07-29T12:30:47.061Z,18.72
2022-07-29T12:33:18.651Z,18.24
2022-07-29T12:35:54.067Z,18.03
2022-07-29T12:38:32.825Z,17.75
2022-07-29T12:40:59.501Z,17.52
2022-07-29T12:43:28.572Z,17.34
2022-07-29T12:45:56.053Z,16.57
2022-07-29T12:48:34.884Z,16.22
2022-07-29T12:51:02.435Z,16.12
2022-07-29T12:53:33.655Z,16.66
2022-07-29T12:56:20.634Z,15.75
2022-07-29T12:58:54.990Z,16.17
2022-07-29T13:01:23.924Z,16.00
2022-07-29T13:04:01.861Z,15.70
2022-07-29T13:06:32.884Z,15.00
2022-07-29T13:09:09.104Z,15.16
2022-07-29T13:11:36.728Z,15.10
2022-07-29T13:14:06.633Z,15.91
2022-07-29T13:16:36.420Z,15.71
2022-07-29T13:19:11.473Z,14.48
2022-07-29T13:21:39.171Z,14.22
2022-07-29T13:24:09.585Z,13.65
2022-07-29T13:26:36.214Z,12.99
2022-07-29T13:29:07.322Z,13.03
2022-07-29T13:31:34.114Z,12.80
2022-07-29T13:34:00.737Z,12.80
2022-07-29T13:36:32.989Z,12.87
2022-07-29T13:38:59.655Z,13.84
2022-07-29T13:41:29.271Z,14.44
2022-07-29T13:43:58.830Z,14.55
2022-07-29T13:46:25.525Z,13.97
2022-07-29T13:48:52.902Z,14.01
2022-07-29T13:51:22.052Z,13.50
2022-07-29T13:53:48.798Z,13.76
2022-07-29T13:56:15.431Z,13.52
2022-07-29T13:58:44.999Z,13.16
2022-07-29T14:01:12.069Z,12.81
2022-07-29T14:03:42.212Z,12.98
2022-07-29T14:06:18.245Z,12.20
2022-07-29T14:08:45.603Z,12.97
2022-07-29T14:11:14.802Z,12.31
2022-07-29T14:13:41.580Z,12.83
2022-07-29T14:16:08.783Z,13.46
2022-07-29T14:18:37.789Z,13.73
2022-07-29T14:21:07.555Z,14.80
2022-07-29T14:23:34.892Z,14.45
2022-07-29T14:26:04.261Z,14.17
2022-07-29T14:28:38.970Z,13.22
2022-07-29T14:31:08.569Z,12.83
2022-07-29T14:33:35.794Z,12.79
2022-07-29T14:36:02.952Z,12.31
2022-07-29T14:38:29.614Z,11.49
2022-07-29T14:40:56.270Z,12.14
2022-07-29T14:43:23.012Z,12.58
2022-07-29T14:45:50.042Z,12.31
2022-07-29T14:48:16.629Z,12.65
2022-07-29T14:50:43.384Z,12.64
2022-07-29T14:53:10.052Z,12.99
2022-07-29T14:55:36.735Z,11.52
2022-07-29T14:58:10.902Z,12.26
2022-07-29T15:00:38.818Z,12.17
2022-07-29T15:03:05.725Z,12.28
2022-07-29T15:05:35.950Z,11.83
2022-07-29T15:08:05.455Z,11.67
2022-07-29T15:10:35.316Z,12.07
2022-07-29T15:13:01.939Z,11.77
2022-07-29T15:15:28.506Z,11.48
2022-07-29T15:17:57.887Z,11.96
2022-07-29T15:20:28.140Z,12.31
2022-07-29T15:22:56.508Z,12.76
2022-07-29T15:25:26.336Z,13.04
2022-07-29T15:28:00.577Z,12.42
2022-07-29T15:30:33.923Z,12.20
2022-07-29T15:33:03.940Z,12.55
2022-07-29T15:35:31.325Z,12.45
2022-07-29T15:37:57.987Z,12.27
2022-07-29T15:40:25.032Z,12.52
2022-07-29T15:42:51.747Z,13.08
2022-07-29T15:45:20.901Z,12.76
2022-07-29T15:47:47.482Z,12.47
2022-07-29T15:50:17.193Z,13.10
2022-07-29T15:52:43.828Z,13.63
2022-07-29T15:55:16.401Z,14.42
2022-07-29T15:57:47.990Z,15.33
2022-07-29T16:00:17.962Z,16.01
2022-07-29T16:02:46.989Z,16.92
2022-07-29T16:05:18.239Z,17.34
2022-07-29T16:07:44.854Z,18.04
2022-07-29T16:10:13.974Z,18.58
2022-07-29T16:12:43.040Z,18.75
2022-07-29T16:15:12.089Z,19.15
2022-07-29T16:17:41.923Z,19.48
2022-07-29T16:20:08.703Z,19.21
2022-07-29T16:22:35.402Z,19.44
2022-07-29T16:25:01.988Z,19.86
2022-07-29T16:27:35.602Z,20.35
2022-07-29T16:30:07.466Z,20.53
2022-07-29T16:32:34.691Z,20.97
2022-07-29T16:35:02.829Z,20.59
2022-07-29T16:37:39.191Z,20.67
2022-07-29T16:40:11.510Z,21.17
2022-07-29T16:42:47.256Z,21.32
2022-07-29T16:45:14.981Z,20.94
2022-07-29T16:47:42.108Z,21.24
2022-07-29T16:50:08.739Z,21.24
2022-07-29T16:52:36.058Z,21.44
2022-07-29T16:55:02.657Z,21.76
2022-07-29T16:57:29.223Z,21.68
2022-07-29T16:59:55.902Z,22.13
2022-07-29T17:02:22.557Z,22.39
2022-07-29T17:04:49.139Z,22.18
2022-07-29T17:07:16.084Z,22.08
2022-07-29T17:09:45.011Z,22.21
2022-07-29T17:12:19.518Z,22.23
2022-07-29T17:14:46.720Z,22.64
2022-07-29T17:17:13.719Z,22.87
2022-07-29T17:19:44.490Z,23.13
2022-07-29T17:22:17.226Z,23.23
2022-07-29T17:24:45.629Z,23.31
2022-07-29T17:27:12.561Z,23.38
2022-07-29T17:29:39.347Z,23.51
2022-07-29T17:32:07.753Z,23.05
2022-07-29T17:34:37.501Z,23.27
2022-07-29T17:37:07.455Z,23.39
2022-07-29T17:39:36.551Z,23.47
2022-07-29T17:42:03.976Z,23.65
2022-07-29T17:44:36.326Z,23.74
2022-07-29T17:47:03.836Z,24.09
2022-07-29T17:49:36.285Z,23.96
2022-07-29T17:52:04.115Z,24.28
2022-07-29T17:54:35.605Z,24.16
2022-07-29T17:57:04.403Z,24.43
2022-07-29T17:59:31.028Z,24.76
2022-07-29T18:02:01.672Z,24.72
2022-07-29T18:04:31.581Z,24.94
2022-07-29T18:06:58.545Z,24.73
2022-07-29T18:09:28.951Z,25.00
2022-07-29T18:11:55.968Z,25.41
2022-07-29T18:14:22.862Z,25.21
2022-07-29T18:16:49.548Z,26.01
2022-07-29T18:19:16.242Z,26.25
2022-07-29T18:21:51.212Z,26.44
2022-07-29T18:24:27.491Z,26.35
2022-07-29T18:26:54.157Z,26.23
2022-07-29T18:29:20.824Z,26.12
2022-07-29T18:31:47.423Z,26.29
2022-07-29T18:34:14.546Z,26.63
2022-07-29T18:36:41.188Z,26.54
2022-07-29T18:39:07.804Z,26.73
2022-07-29T18:41:46.036Z,26.84
2022-07-29T18:44:21.950Z,27.88
2022-07-29T18:46:49.654Z,27.94
2022-07-29T18:49:16.338Z,28.43
2022-07-29T18:51:45.432Z,29.53
2022-07-29T18:54:14.467Z,29.41
2022-07-29T18:56:41.230Z,28.92
2022-07-29T18:59:10.609Z,28.70
2022-07-29T19:01:39.837Z,29.34
2022-07-29T19:04:06.856Z,29.39
2022-07-29T19:06:34.243Z,29.59
2022-07-29T19:09:01.047Z,29.83
2022-07-29T19:11:27.617Z,30.58
2022-07-29T19:13:54.344Z,30.45
2022-07-29T19:16:21.176Z,30.20
2022-07-29T19:18:47.840Z,30.38
2022-07-29T19:21:14.430Z,30.42
2022-07-29T19:24:01.758Z,31.23
2022-07-29T19:26:29.420Z,31.06
2022-07-29T19:29:00.611Z,33.29
2022-07-29T19:31:29.642Z,32.65
2022-07-29T19:33:56.545Z,32.98
2022-07-29T19:36:23.406Z,32.92
2022-07-29T19:38:50.744Z,33.05
2022-07-29T19:41:17.311Z,33.64
2022-07-29T19:43:50.504Z,33.63
2022-07-29T19:46:19.873Z,33.19
2022-07-29T19:48:48.983Z,33.62
2022-07-29T19:51:16.277Z,33.70
2022-07-29T19:53:45.222Z,33.95
2022-07-29T19:56:14.460Z,35.62
2022-07-29T19:58:41.846Z,34.12
2022-07-29T20:01:10.757Z,34.39
2022-07-29T20:03:40.190Z,34.30
2022-07-29T20:06:07.852Z,34.71
2022-07-29T20:08:34.774Z,35.79
2022-07-29T20:11:04.055Z,36.22
2022-07-29T20:13:33.066Z,36.07
2022-07-29T20:16:00.170Z,35.54
2022-07-29T20:18:27.451Z,37.12
2022-07-29T20:20:57.717Z,36.31
2022-07-29T20:23:27.779Z,36.34
2022-07-29T20:25:59.923Z,36.27
2022-07-29T20:28:27.169Z,36.71
2022-07-29T20:30:54.333Z,36.42
2022-07-29T20:33:24.267Z,36.74
2022-07-29T20:35:53.794Z,37.21
2022-07-29T20:38:22.624Z,38.58
2022-07-29T20:40:50.719Z,38.04
2022-07-29T20:43:17.344Z,37.66
2022-07-29T20:45:44.066Z,38.41
2022-07-29T20:48:13.908Z,38.29
2022-07-29T20:50:41.045Z,39.46
2022-07-29T20:53:08.149Z,38.23
2022-07-29T20:55:34.796Z,39.80
2022-07-29T20:58:01.853Z,38.54
2022-07-29T21:00:28.817Z,38.36
2022-07-29T21:02:55.389Z,38.57
2022-07-29T21:05:24.343Z,38.86
2022-07-29T21:07:54.306Z,39.29
2022-07-29T21:10:23.306Z,39.98
2022-07-29T21:12:52.098Z,40.17
2022-07-29T21:15:20.786Z,39.25
2022-07-29T21:17:47.690Z,40.60
2022-07-29T21:20:18.100Z,39.36
2022-07-29T21:22:45.021Z,39.87
2022-07-29T21:25:12.135Z,40.33
2022-07-29T21:27:57.248Z,40.54
2022-07-29T21:30:26.662Z,40.68
2022-07-29T21:32:53.220Z,40.70
2022-07-29T21:36:01.765Z,42.00
2022-07-29T21:38:06.854Z,41.48
2022-07-29T21:40:33.492Z,41.14
2022-07-29T21:43:00.486Z,42.96
2022-07-29T21:45:29.922Z,41.82
2022-07-29T21:47:59.220Z,41.96
2022-07-29T21:50:26.136Z,42.01
2022-07-29T21:52:53.510Z,42.06
2022-07-29T21:55:22.469Z,41.42
2022-07-29T21:57:51.441Z,43.79
2022-07-29T22:00:21.216Z,42.61
2022-07-29T22:02:51.392Z,42.95
2022-07-29T22:05:17.942Z,42.74
2022-07-29T22:07:56.148Z,42.82
2022-07-29T22:10:24.189Z,43.00
2022-07-29T22:12:52.029Z,42.25
2022-07-29T22:15:18.759Z,42.47
2022-07-29T22:17:45.817Z,43.13
2022-07-29T22:20:14.909Z,43.34
2022-07-29T22:22:41.484Z,43.49
2022-07-29T22:25:10.714Z,43.58
2022-07-29T22:27:37.467Z,43.84
2022-07-29T22:30:09.930Z,43.33
2022-07-29T22:32:36.994Z,44.16
2022-07-29T22:35:03.912Z,44.11
2022-07-29T22:37:30.494Z,44.04
2022-07-29T22:39:57.114Z,44.11
2022-07-29T22:42:26.651Z,44.33
2022-07-29T22:44:56.038Z,43.98
2022-07-29T22:47:46.133Z,44.52
2022-07-29T22:50:13.172Z,44.53
2022-07-29T22:52:39.771Z,44.79
2022-07-29T22:55:08.813Z,44.49
2022-07-29T22:57:35.611Z,44.87
2022-07-29T23:00:02.443Z,45.05
2022-07-29T23:02:31.974Z,44.88
2022-07-29T23:04:59.021Z,45.50
2022-07-29T23:07:26.067Z,45.30
2022-07-29T23:09:52.670Z,45.45
2022-07-29T23:12:19.179Z,45.71
2022-07-29T23:14:45.994Z,45.41
2022-07-29T23:17:15.124Z,45.83
2022-07-29T23:19:41.789Z,46.07
2022-07-29T23:22:08.409Z,46.33
2022-07-29T23:24:39.855Z,46.51
2022-07-29T23:27:07.533Z,46.49
2022-07-29T23:29:37.085Z,47.05
2022-07-29T23:32:06.143Z,46.90
2022-07-29T23:34:32.803Z,47.28
2022-07-29T23:37:01.844Z,47.16
2022-07-29T23:39:32.018Z,47.37
2022-07-29T23:41:58.600Z,47.91
2022-07-29T23:44:25.283Z,47.51
2022-07-29T23:46:51.918Z,47.90
2022-07-29T23:49:21.556Z,47.76
2022-07-29T23:51:50.490Z,47.92
2022-07-29T23:54:17.457Z,47.53
2022-07-29T23:56:46.474Z,47.47
2022-07-29T23:59:15.764Z,47.89
